createdAt,value
2018-03-26T00:02:12.251Z,92.80
2018-03-26T00:04:38.811Z,92.90
2018-03-26T00:07:05.478Z,93.00
2018-03-26T00:09:32.104Z,92.70
2018-03-26T00:11:58.685Z,92.40
2018-03-26T00:14:29.355Z,92.40
2018-03-26T00:16:56.034Z,92.20
2018-03-26T00:19:22.659Z,92.20
2018-03-26T00:21:49.251Z,92.50
2018-03-26T00:24:15.823Z,92.90
2018-03-26T00:26:42.394Z,93.30
2018-03-26T00:29:08.945Z,93.50
2018-03-26T00:31:36.264Z,93.20
2018-03-26T00:34:02.842Z,93.20
2018-03-26T00:36:29.446Z,93.30
2018-03-26T00:38:56.020Z,93.70
2018-03-26T00:41:22.656Z,93.70
2018-03-26T00:43:49.249Z,93.60
2018-03-26T00:46:15.828Z,94.20
2018-03-26T00:48:42.399Z,93.70
2018-03-26T00:51:08.944Z,93.60
2018-03-26T00:53:42.794Z,93.40
2018-03-26T00:56:09.302Z,93.20
2018-03-26T00:58:35.840Z,93.60
2018-03-26T01:01:02.522Z,94.00
2018-03-26T01:03:29.806Z,94.80
2018-03-26T01:05:56.382Z,94.80
2018-03-26T01:08:22.815Z,94.70
2018-03-26T01:10:49.254Z,94.30
2018-03-26T01:13:15.758Z,94.30
2018-03-26T01:15:42.937Z,93.40
2018-03-26T01:18:09.813Z,93.80
2018-03-26T01:20:37.767Z,94.00
2018-03-26T01:23:04.237Z,94.00
2018-03-26T01:25:33.520Z,94.30
2018-03-26T01:28:00.714Z,94.10
2018-03-26T01:30:27.187Z,94.00
2018-03-26T01:32:53.625Z,94.00
2018-03-26T01:35:20.082Z,93.90
2018-03-26T01:37:46.631Z,93.70
2018-03-26T01:40:13.106Z,93.50
2018-03-26T01:42:55.910Z,92.80
2018-03-26T01:45:23.170Z,93.10
2018-03-26T01:47:54.556Z,93.10
2018-03-26T01:50:21.060Z,93.00
2018-03-26T01:52:47.550Z,92.90
2018-03-26T01:55:14.053Z,92.90
2018-03-26T01:57:46.502Z,92.40
2018-03-26T02:00:12.914Z,92.40
2018-03-26T02:02:51.309Z,92.60
2018-03-26T02:05:17.758Z,92.60
2018-03-26T02:07:44.202Z,92.90
2018-03-26T02:10:17.872Z,93.40
2018-03-26T02:12:44.409Z,93.10
2018-03-26T02:15:10.897Z,92.70
2018-03-26T02:17:37.329Z,92.50
2018-03-26T02:20:07.677Z,92.60
2018-03-26T02:22:34.125Z,92.60
2018-03-26T02:25:08.668Z,92.30
2018-03-26T02:27:36.636Z,92.80
2018-03-26T02:30:03.156Z,92.80
2018-03-26T02:32:29.607Z,92.70
2018-03-26T02:34:56.047Z,92.90
2018-03-26T02:37:22.492Z,93.20
2018-03-26T02:39:49.676Z,93.50
2018-03-26T02:42:16.155Z,93.50
2018-03-26T02:44:42.594Z,93.60
2018-03-26T02:47:09.036Z,93.60
2018-03-26T02:49:35.518Z,93.60
2018-03-26T02:52:02.006Z,93.50
2018-03-26T02:54:32.340Z,93.50
2018-03-26T02:56:58.811Z,93.50
2018-03-26T02:59:25.352Z,93.30
2018-03-26T03:02:16.410Z,92.90
2018-03-26T03:04:42.842Z,92.60
2018-03-26T03:07:09.293Z,92.70
2018-03-26T03:09:35.729Z,92.30
2018-03-26T03:12:06.133Z,92.10
2018-03-26T03:14:32.602Z,92.40
2018-03-26T03:17:02.885Z,91.90
2018-03-26T03:19:29.310Z,91.90
2018-03-26T03:21:55.730Z,92.70
2018-03-26T03:24:29.170Z,92.90
2018-03-26T03:26:55.601Z,92.60
2018-03-26T03:29:26.911Z,92.20
2018-03-26T03:31:53.397Z,91.90
2018-03-26T03:34:29.064Z,92.00
2018-03-26T03:36:56.280Z,93.40
2018-03-26T03:39:23.716Z,93.40
2018-03-26T03:41:50.140Z,93.60
2018-03-26T03:44:16.584Z,93.90
2018-03-26T03:46:52.178Z,93.60
2018-03-26T03:49:18.632Z,93.40
2018-03-26T03:51:48.336Z,93.70
2018-03-26T03:54:15.512Z,93.60
2018-03-26T03:56:42.976Z,93.60
2018-03-26T03:59:09.425Z,93.80
2018-03-26T04:01:35.846Z,94.10
2018-03-26T04:04:02.429Z,94.00
2018-03-26T04:06:28.853Z,94.10
2018-03-26T04:08:55.298Z,94.00
2018-03-26T04:11:21.722Z,94.00
2018-03-26T04:13:48.206Z,93.90
2018-03-26T04:16:14.652Z,93.90
2018-03-26T04:18:41.101Z,93.80
2018-03-26T04:21:07.602Z,93.80
2018-03-26T04:23:34.821Z,93.70
2018-03-26T04:26:01.265Z,93.70
2018-03-26T04:28:29.199Z,93.50
2018-03-26T04:30:55.652Z,93.50
2018-03-26T04:33:22.110Z,93.40
2018-03-26T04:35:49.284Z,93.50
2018-03-26T04:38:16.542Z,93.40
2018-03-26T04:40:42.960Z,93.40
2018-03-26T04:43:10.150Z,93.40
2018-03-26T04:45:36.574Z,93.30
2018-03-26T04:48:03.029Z,93.30
2018-03-26T04:50:29.476Z,93.30
2018-03-26T04:52:57.482Z,93.20
2018-03-26T04:55:24.670Z,93.20
2018-03-26T04:57:51.116Z,93.20
2018-03-26T05:00:17.536Z,93.10
2018-03-26T05:02:43.991Z,93.10
2018-03-26T05:05:10.397Z,93.00
2018-03-26T05:07:36.840Z,92.90
2018-03-26T05:10:03.363Z,93.00
2018-03-26T05:12:29.830Z,93.00
2018-03-26T05:14:56.274Z,93.00
2018-03-26T05:17:22.726Z,93.00
2018-03-26T05:19:49.177Z,93.00
2018-03-26T05:22:16.361Z,93.00
2018-03-26T05:24:42.797Z,93.00
2018-03-26T05:27:09.267Z,92.90
2018-03-26T05:29:35.703Z,92.90
2018-03-26T05:32:02.137Z,92.80
2018-03-26T05:34:29.369Z,92.60
2018-03-26T05:36:55.798Z,92.60
2018-03-26T05:39:22.231Z,92.20
2018-03-26T05:41:48.657Z,92.20
2018-03-26T05:44:15.243Z,92.20
2018-03-26T05:46:41.696Z,92.10
2018-03-26T05:49:08.148Z,91.80
2018-03-26T05:51:35.313Z,91.80
2018-03-26T05:54:01.774Z,91.80
2018-03-26T05:56:28.205Z,91.70
2018-03-26T05:58:54.646Z,91.70
2018-03-26T06:01:21.102Z,91.70
2018-03-26T06:03:47.568Z,91.80
2018-03-26T06:06:14.069Z,91.70
2018-03-26T06:08:40.520Z,91.60
2018-03-26T06:11:06.985Z,91.50
2018-03-26T06:13:33.466Z,91.50
2018-03-26T06:16:00.659Z,91.50
2018-03-26T06:18:27.194Z,91.50
2018-03-26T06:20:53.669Z,91.70
2018-03-26T06:23:20.193Z,91.70
2018-03-26T06:25:46.670Z,91.70
2018-03-26T06:28:13.890Z,91.40
2018-03-26T06:30:40.430Z,91.40
2018-03-26T06:33:06.875Z,91.40
2018-03-26T06:35:33.345Z,91.30
2018-03-26T06:38:01.399Z,91.20
2018-03-26T06:40:27.890Z,91.20
2018-03-26T06:42:54.331Z,91.10
2018-03-26T06:45:20.775Z,91.10
2018-03-26T06:47:47.195Z,91.10
2018-03-26T06:50:13.718Z,91.00
2018-03-26T06:52:40.146Z,91.00
2018-03-26T06:55:06.633Z,91.00
2018-03-26T06:57:33.057Z,91.00
2018-03-26T06:59:59.497Z,91.10
2018-03-26T07:02:25.949Z,91.00
2018-03-26T07:04:53.889Z,90.90
2018-03-26T07:07:20.326Z,90.90
2018-03-26T07:09:46.810Z,90.80
2018-03-26T07:12:13.253Z,90.70
2018-03-26T07:14:39.754Z,90.80
2018-03-26T07:17:06.194Z,90.80
2018-03-26T07:19:33.456Z,90.60
2018-03-26T07:21:59.879Z,90.60
2018-03-26T07:24:26.337Z,90.50
2018-03-26T07:26:52.758Z,90.30
2018-03-26T07:29:19.209Z,90.10
2018-03-26T07:31:45.689Z,90.10
2018-03-26T07:34:12.141Z,90.10
2018-03-26T07:36:38.561Z,90.10
2018-03-26T07:39:09.853Z,90.10
2018-03-26T07:41:37.020Z,90.10
2018-03-26T07:44:03.480Z,90.10
2018-03-26T07:46:29.899Z,90.20
2018-03-26T07:48:56.353Z,90.10
2018-03-26T07:51:22.792Z,90.10
2018-03-26T07:53:49.281Z,90.00
2018-03-26T07:56:16.459Z,89.60
2018-03-26T07:58:42.986Z,89.60
2018-03-26T08:01:09.457Z,89.60
2018-03-26T08:03:35.921Z,89.60
2018-03-26T08:06:02.387Z,89.50
2018-03-26T08:08:28.881Z,89.60
2018-03-26T08:10:56.065Z,89.30
2018-03-26T08:13:22.548Z,89.30
2018-03-26T08:15:48.993Z,88.50
2018-03-26T08:18:15.465Z,88.60
2018-03-26T08:20:41.902Z,88.90
2018-03-26T08:23:09.097Z,88.70
2018-03-26T08:25:35.553Z,88.70
2018-03-26T08:28:02.030Z,88.60
2018-03-26T08:30:28.488Z,88.30
2018-03-26T08:32:54.924Z,88.80
2018-03-26T08:35:25.285Z,88.80
2018-03-26T08:37:51.713Z,88.80
2018-03-26T08:40:18.186Z,88.60
2018-03-26T08:42:45.371Z,88.20
2018-03-26T08:45:11.817Z,88.10
2018-03-26T08:47:38.258Z,88.00
2018-03-26T08:50:04.909Z,87.70
2018-03-26T08:52:31.342Z,87.70
2018-03-26T08:54:57.784Z,87.60
2018-03-26T08:57:24.206Z,87.20
2018-03-26T08:59:51.437Z,87.50
2018-03-26T09:02:17.903Z,87.50
2018-03-26T09:04:44.352Z,88.20
2018-03-26T09:07:10.820Z,88.20
2018-03-26T09:09:37.247Z,87.10
2018-03-26T09:12:04.493Z,86.20
2018-03-26T09:14:31.041Z,86.20
2018-03-26T09:16:57.485Z,86.00
2018-03-26T09:19:23.958Z,84.60
2018-03-26T09:21:50.441Z,84.30
2018-03-26T09:24:16.934Z,84.50
2018-03-26T09:26:43.440Z,84.80
2018-03-26T09:29:09.869Z,85.30
2018-03-26T09:31:37.079Z,85.30
2018-03-26T09:34:03.526Z,86.00
2018-03-26T09:36:30.739Z,85.00
2018-03-26T09:38:57.155Z,85.00
2018-03-26T09:41:23.618Z,84.60
2018-03-26T09:43:50.077Z,85.40
2018-03-26T09:46:17.289Z,85.50
2018-03-26T09:48:43.703Z,85.40
2018-03-26T09:51:10.197Z,85.20
2018-03-26T09:53:36.652Z,84.90
2018-03-26T09:56:03.129Z,85.50
2018-03-26T09:58:30.301Z,84.40
2018-03-26T10:01:01.434Z,84.00
2018-03-26T10:03:27.893Z,84.00
2018-03-26T10:05:55.111Z,83.30
2018-03-26T10:08:21.528Z,83.20
2018-03-26T10:10:47.977Z,82.60
2018-03-26T10:13:14.402Z,82.60
2018-03-26T10:15:40.914Z,82.80
2018-03-26T10:18:07.345Z,82.90
2018-03-26T10:20:33.818Z,82.00
2018-03-26T10:23:00.238Z,81.70
2018-03-26T10:25:27.540Z,80.90
2018-03-26T10:27:54.717Z,81.00
2018-03-26T10:30:21.200Z,80.80
2018-03-26T10:32:47.651Z,80.70
2018-03-26T10:35:14.106Z,80.40
2018-03-26T10:37:41.289Z,77.60
2018-03-26T10:40:07.801Z,77.50
2018-03-26T10:42:34.236Z,78.00
2018-03-26T10:45:01.390Z,79.10
2018-03-26T10:47:27.848Z,79.00
2018-03-26T10:49:54.313Z,78.60
2018-03-26T10:52:20.749Z,77.60
2018-03-26T10:54:48.181Z,75.70
2018-03-26T10:57:14.635Z,76.00
2018-03-26T10:59:41.057Z,75.70
2018-03-26T11:02:07.522Z,73.50
2018-03-26T11:04:34.715Z,74.60
2018-03-26T11:07:01.150Z,74.50
2018-03-26T11:09:27.628Z,73.40
2018-03-26T11:11:54.417Z,75.30
2018-03-26T11:14:20.858Z,74.80
2018-03-26T11:16:47.306Z,72.30
2018-03-26T11:19:13.752Z,72.40
2018-03-26T11:21:40.225Z,70.90
2018-03-26T11:24:06.647Z,70.50
2018-03-26T11:26:33.109Z,74.20
2018-03-26T11:28:59.565Z,71.20
2018-03-26T11:31:26.733Z,70.90
2018-03-26T11:33:53.161Z,70.90
2018-03-26T11:36:19.689Z,70.40
2018-03-26T11:38:46.057Z,69.20
2018-03-26T11:41:12.491Z,68.20
2018-03-26T11:43:38.914Z,68.30
2018-03-26T11:46:05.367Z,65.30
2018-03-26T11:48:31.785Z,63.90
2018-03-26T11:50:58.243Z,65.60
2018-03-26T11:53:24.772Z,63.00
2018-03-26T11:55:57.862Z,64.40
2018-03-26T11:58:25.290Z,66.00
2018-03-26T12:00:51.791Z,66.00
2018-03-26T12:03:18.991Z,64.20
2018-03-26T12:05:45.459Z,64.10
2018-03-26T12:08:11.894Z,62.10
2018-03-26T12:10:38.349Z,64.80
2018-03-26T12:13:04.864Z,65.70
2018-03-26T12:15:31.290Z,62.60
2018-03-26T12:17:57.716Z,63.80
2018-03-26T12:20:36.472Z,64.40
2018-03-26T12:23:16.060Z,63.70
2018-03-26T12:25:42.569Z,63.60
2018-03-26T12:28:21.289Z,64.80
2018-03-26T12:30:47.749Z,65.80
2018-03-26T12:33:14.224Z,64.30
2018-03-26T12:35:50.956Z,65.60
2018-03-26T12:38:17.448Z,65.10
2018-03-26T12:40:57.018Z,64.80
2018-03-26T12:43:23.453Z,64.80
2018-03-26T12:46:02.262Z,64.50
2018-03-26T12:48:29.462Z,61.80
2018-03-26T12:51:08.101Z,61.70
2018-03-26T12:53:34.541Z,61.80
2018-03-26T12:56:00.975Z,62.50
2018-03-26T12:58:37.523Z,62.10
2018-03-26T13:01:16.385Z,61.00
2018-03-26T13:03:42.863Z,62.30
2018-03-26T13:06:09.354Z,61.80
2018-03-26T13:08:35.801Z,59.50
2018-03-26T13:11:02.286Z,60.20
2018-03-26T13:13:28.730Z,60.80
2018-03-26T13:15:55.201Z,60.10
2018-03-26T13:18:21.677Z,58.70
2018-03-26T13:20:48.151Z,58.50
2018-03-26T13:23:15.359Z,58.90
2018-03-26T13:25:41.864Z,58.80
2018-03-26T13:28:08.362Z,57.60
2018-03-26T13:30:34.821Z,56.90
2018-03-26T13:33:01.261Z,56.70
2018-03-26T13:35:27.697Z,58.20
2018-03-26T13:37:54.174Z,55.80
2018-03-26T13:40:20.652Z,55.90
2018-03-26T13:42:47.057Z,56.70
2018-03-26T13:45:13.500Z,56.90
2018-03-26T13:47:39.987Z,56.20
2018-03-26T13:50:07.327Z,51.60
2018-03-26T13:52:33.749Z,51.60
2018-03-26T13:55:00.206Z,53.20
2018-03-26T13:57:27.441Z,53.80
2018-03-26T13:59:54.678Z,54.40
2018-03-26T14:02:21.143Z,54.30
2018-03-26T14:04:48.373Z,55.30
2018-03-26T14:07:14.791Z,55.20
2018-03-26T14:09:53.438Z,55.90
2018-03-26T14:12:32.906Z,56.70
2018-03-26T14:15:11.542Z,56.70
2018-03-26T14:17:49.245Z,58.90
2018-03-26T14:20:15.773Z,58.90
2018-03-26T14:22:42.982Z,59.80
2018-03-26T14:25:09.434Z,59.80
2018-03-26T14:27:36.673Z,61.10
2018-03-26T14:30:03.905Z,62.40
2018-03-26T14:32:30.405Z,62.30
2018-03-26T14:38:12.788Z,61.20
2018-03-26T14:40:39.236Z,61.10
2018-03-26T14:43:06.521Z,61.30
2018-03-26T14:45:33.032Z,61.30
2018-03-26T14:48:00.289Z,62.90
2018-03-26T14:50:27.481Z,61.60
2018-03-26T14:52:53.937Z,61.50
2018-03-26T14:55:20.384Z,62.00
2018-03-26T14:57:46.834Z,63.10
2018-03-26T15:00:14.029Z,66.50
2018-03-26T15:02:40.501Z,65.60
2018-03-26T15:05:06.965Z,68.80
2018-03-26T15:07:34.149Z,72.60
2018-03-26T15:10:00.617Z,72.60
2018-03-26T15:12:27.073Z,76.10
2018-03-26T15:14:54.269Z,80.40
2018-03-26T15:17:20.733Z,79.80
2018-03-26T15:19:47.225Z,82.20
2018-03-26T15:22:13.710Z,82.90
2018-03-26T15:24:40.193Z,84.20
2018-03-26T15:27:06.640Z,85.20
2018-03-26T15:29:35.123Z,86.10
2018-03-26T15:32:02.653Z,86.70
2018-03-26T15:34:29.050Z,86.70
2018-03-26T15:36:55.522Z,87.20
2018-03-26T15:39:22.741Z,87.60
2018-03-26T15:41:49.273Z,87.50
2018-03-26T15:44:16.566Z,87.70
2018-03-26T15:46:43.772Z,87.30
2018-03-26T15:49:10.215Z,87.30
2018-03-26T15:51:36.682Z,87.70
2018-03-26T15:54:03.912Z,87.20
2018-03-26T15:56:30.348Z,87.20
2018-03-26T15:58:56.827Z,87.50
2018-03-26T16:01:23.277Z,87.80
2018-03-26T16:03:49.761Z,87.50
2018-03-26T16:06:16.214Z,87.00
2018-03-26T16:08:43.417Z,86.30
2018-03-26T16:11:09.872Z,86.30
2018-03-26T16:13:36.397Z,86.10
2018-03-26T16:16:02.885Z,85.80
2018-03-26T16:18:29.365Z,85.70
2018-03-26T16:20:55.815Z,85.30
2018-03-26T16:23:22.270Z,85.40
2018-03-26T16:25:49.456Z,85.40
2018-03-26T16:28:15.923Z,85.20
2018-03-26T16:30:42.353Z,85.00
2018-03-26T16:33:08.813Z,84.70
2018-03-26T16:35:35.242Z,84.90
2018-03-26T16:38:01.728Z,85.40
2018-03-26T16:40:32.039Z,85.70
2018-03-26T16:43:03.537Z,86.00
2018-03-26T16:45:30.004Z,86.40
2018-03-26T16:47:56.457Z,85.80
2018-03-26T16:50:22.918Z,85.90
2018-03-26T16:52:49.390Z,86.50
2018-03-26T16:55:15.872Z,87.60
2018-03-26T16:57:42.359Z,87.60
2018-03-26T17:00:08.794Z,87.80
2018-03-26T17:02:35.428Z,87.60
2018-03-26T17:05:01.858Z,87.80
2018-03-26T17:07:28.307Z,88.20
2018-03-26T17:09:55.514Z,89.10
2018-03-26T17:12:21.986Z,89.00
2018-03-26T17:14:48.425Z,89.00
2018-03-26T17:17:14.889Z,88.90
2018-03-26T17:19:41.359Z,89.20
2018-03-26T17:22:07.937Z,89.20
2018-03-26T17:24:34.365Z,89.20
2018-03-26T17:27:00.868Z,89.40
2018-03-26T17:29:27.296Z,88.90
2018-03-26T17:31:53.721Z,89.80
2018-03-26T17:34:20.158Z,89.80
2018-03-26T17:36:46.625Z,89.80
2018-03-26T17:39:13.074Z,90.00
2018-03-26T17:41:39.532Z,90.30
2018-03-26T17:44:06.780Z,90.20
2018-03-26T17:46:33.973Z,90.20
2018-03-26T17:49:00.604Z,90.20
2018-03-26T17:51:27.114Z,90.40
2018-03-26T17:53:54.389Z,90.60
2018-03-26T17:56:20.792Z,90.60
2018-03-26T17:58:47.265Z,90.70
2018-03-26T18:01:13.733Z,90.80
2018-03-26T18:03:40.202Z,90.80
2018-03-26T18:06:07.420Z,91.00
2018-03-26T18:08:33.846Z,91.00
2018-03-26T18:11:00.270Z,91.10
2018-03-26T18:13:26.745Z,91.20
2018-03-26T18:15:53.169Z,91.20
2018-03-26T18:18:24.370Z,91.40
2018-03-26T18:20:50.994Z,91.40
2018-03-26T18:23:17.461Z,91.30
2018-03-26T18:25:43.902Z,91.30
2018-03-26T18:28:10.415Z,91.30
2018-03-26T18:30:36.824Z,91.40
2018-03-26T18:33:04.002Z,91.20
2018-03-26T18:35:31.354Z,91.20
2018-03-26T18:37:57.769Z,91.10
2018-03-26T18:40:24.227Z,91.10
2018-03-26T18:42:50.709Z,90.90
2018-03-26T18:45:17.131Z,90.90
2018-03-26T18:47:43.552Z,90.90
2018-03-26T18:50:10.049Z,90.90
2018-03-26T18:52:36.485Z,90.80
2018-03-26T18:55:02.984Z,90.90
2018-03-26T18:57:29.571Z,90.80
2018-03-26T18:59:56.046Z,91.00
2018-03-26T19:02:22.502Z,91.10
2018-03-26T19:04:48.961Z,91.20
2018-03-26T19:07:15.449Z,91.20
2018-03-26T19:09:41.956Z,91.20
2018-03-26T19:12:08.435Z,91.40
2018-03-26T19:14:35.666Z,91.80
2018-03-26T19:17:02.124Z,91.80
2018-03-26T19:19:28.701Z,91.90
2018-03-26T19:21:55.147Z,91.90
2018-03-26T19:24:21.599Z,91.80
2018-03-26T19:26:48.050Z,91.80
2018-03-26T19:29:14.528Z,91.60
2018-03-26T19:31:40.989Z,91.50
2018-03-26T19:34:07.496Z,91.80
2018-03-26T19:36:34.662Z,92.00
2018-03-26T19:39:01.165Z,92.00
2018-03-26T19:41:28.349Z,92.30
2018-03-26T19:43:54.867Z,92.20
2018-03-26T19:46:22.036Z,92.60
2018-03-26T19:48:48.534Z,92.60
2018-03-26T19:51:14.987Z,92.60
2018-03-26T19:53:41.446Z,92.40
2018-03-26T19:56:07.886Z,92.60
2018-03-26T19:58:34.359Z,92.40
2018-03-26T20:01:00.777Z,92.40
2018-03-26T20:03:27.253Z,92.00
2018-03-26T20:05:54.435Z,92.00
2018-03-26T20:08:21.021Z,91.90
2018-03-26T20:10:48.218Z,92.10
2018-03-26T20:13:14.711Z,92.10
2018-03-26T20:15:41.173Z,92.70
2018-03-26T20:18:07.657Z,92.90
2018-03-26T20:20:34.129Z,93.10
2018-03-26T20:23:01.374Z,92.70
2018-03-26T20:25:29.333Z,92.50
2018-03-26T20:27:55.801Z,92.60
2018-03-26T20:30:22.300Z,92.50
2018-03-26T20:32:48.784Z,92.80
2018-03-26T20:35:15.242Z,92.80
2018-03-26T20:37:41.660Z,92.40
2018-03-26T20:40:08.146Z,92.60
2018-03-26T20:42:34.562Z,93.20
2018-03-26T20:45:00.989Z,93.20
2018-03-26T20:47:27.458Z,92.90
2018-03-26T20:49:54.671Z,93.50
2018-03-26T20:52:24.057Z,93.50
2018-03-26T20:54:50.516Z,93.40
2018-03-26T20:57:16.955Z,93.40
2018-03-26T20:59:43.424Z,93.40
2018-03-26T21:02:09.941Z,93.70
2018-03-26T21:04:36.477Z,94.10
2018-03-26T21:07:05.030Z,94.70
2018-03-26T21:09:31.566Z,95.00
2018-03-26T21:11:58.124Z,95.00
2018-03-26T21:14:24.682Z,95.10
2018-03-26T21:16:51.237Z,95.10
2018-03-26T21:19:18.538Z,95.40
2018-03-26T21:21:45.077Z,95.30
2018-03-26T21:24:11.625Z,95.70
2018-03-26T21:26:38.927Z,95.40
2018-03-26T21:29:05.502Z,95.40
2018-03-26T21:31:32.161Z,95.30
2018-03-26T21:33:59.453Z,96.00
2018-03-26T21:36:26.016Z,96.00
2018-03-26T21:38:52.550Z,95.90
2018-03-26T21:41:19.118Z,96.40
2018-03-26T21:43:45.645Z,96.30
2018-03-26T21:46:12.234Z,96.20
2018-03-26T21:48:39.546Z,96.20
2018-03-26T21:51:06.131Z,96.20
2018-03-26T21:53:33.404Z,96.30
2018-03-26T21:55:59.987Z,96.20
2018-03-26T21:58:26.505Z,96.30
2018-03-26T22:00:53.085Z,96.30
2018-03-26T22:03:20.371Z,96.20
2018-03-26T22:05:46.899Z,96.20
2018-03-26T22:08:13.757Z,96.20
2018-03-26T22:10:40.401Z,96.10
2018-03-26T22:13:06.965Z,96.10
2018-03-26T22:15:33.517Z,96.10
2018-03-26T22:18:00.781Z,96.10
2018-03-26T22:20:28.073Z,95.90
2018-03-26T22:22:54.630Z,95.90
2018-03-26T22:25:21.184Z,95.90
2018-03-26T22:27:47.710Z,95.70
2018-03-26T22:30:14.288Z,95.80
2018-03-26T22:32:41.561Z,95.70
2018-03-26T22:35:08.087Z,95.70
2018-03-26T22:37:34.633Z,95.10
2018-03-26T22:40:01.205Z,94.60
2018-03-26T22:42:27.726Z,94.10
2018-03-26T22:44:54.399Z,93.90
2018-03-26T22:47:20.907Z,94.10
2018-03-26T22:49:47.466Z,93.90
2018-03-26T22:52:13.971Z,93.80
2018-03-26T22:54:40.573Z,93.60
2018-03-26T22:57:07.834Z,93.40
2018-03-26T22:59:35.129Z,93.40
2018-03-26T23:02:01.651Z,93.30
2018-03-26T23:04:28.169Z,93.10
2018-03-26T23:06:55.447Z,93.40
2018-03-26T23:09:21.973Z,93.40
2018-03-26T23:11:48.538Z,93.40
2018-03-26T23:14:15.090Z,93.60
2018-03-26T23:16:41.613Z,93.80
2018-03-26T23:19:08.163Z,93.90
2018-03-26T23:21:34.684Z,94.20
2018-03-26T23:24:01.212Z,94.30
2018-03-26T23:26:27.722Z,94.50
2018-03-26T23:28:54.232Z,94.60
2018-03-26T23:31:20.806Z,94.70
2018-03-26T23:33:47.372Z,94.80
2018-03-26T23:39:11.144Z,95.20
2018-03-26T23:41:37.797Z,95.20
2018-03-26T23:44:05.895Z,95.40
2018-03-26T23:46:33.274Z,95.10
2018-03-26T23:48:59.923Z,95.10
2018-03-26T23:51:26.567Z,95.10
2018-03-26T23:53:53.207Z,95.10
2018-03-26T23:56:19.862Z,95.30
2018-03-26T23:58:46.495Z,95.40
